sensor_id;sensor_type;location;lat;lon;timestamp;temperature;humidity
9941;DHT22;5009;50.656;7.188;2023-06-14T04:00:22;15.70;93.00
9941;DHT22;5009;50.656;7.188;2023-06-14T04:02:48;15.60;93.00
9941;DHT22;5009;50.656;7.188;2023-06-14T04:05:14;15.70;92.90
9941;DHT22;5009;50.656;7.188;2023-06-14T04:07:42;15.70;92.80
9941;DHT22;5009;50.656;7.188;2023-06-14T04:10:18;15.70;92.70
9941;DHT22;5009;50.656;7.188;2023-06-14T04:12:45;15.80;92.60
9941;DHT22;5009;50.656;7.188;2023-06-14T04:15:11;15.70;92.40
9941;DHT22;5009;50.656;7.188;2023-06-14T04:17:43;15.90;92.30
9941;DHT22;5009;50.656;7.188;2023-06-14T04:20:09;16.00;92.30
9941;DHT22;5009;50.656;7.188;2023-06-14T04:22:36;16.10;92.20
9941;DHT22;5009;50.656;7.188;2023-06-14T04:25:02;16.30;92.10
9941;DHT22;5009;50.656;7.188;2023-06-14T04:27:27;16.30;91.90
9941;DHT22;5009;50.656;7.188;2023-06-14T04:29:56;16.50;91.60
9941;DHT22;5009;50.656;7.188;2023-06-14T04:32:27;16.70;91.20
9941;DHT22;5009;50.656;7.188;2023-06-14T04:34:55;17.00;90.80
9941;DHT22;5009;50.656;7.188;2023-06-14T04:37:21;17.40;90.00
9941;DHT22;5009;50.656;7.188;2023-06-14T04:39:48;17.60;87.90
9941;DHT22;5009;50.656;7.188;2023-06-14T04:42:13;17.70;86.50
9941;DHT22;5009;50.656;7.188;2023-06-14T04:44:41;18.00;86.40
9941;DHT22;5009;50.656;7.188;2023-06-14T04:47:06;18.20;85.60
9941;DHT22;5009;50.656;7.188;2023-06-14T04:49:32;18.50;84.90
9941;DHT22;5009;50.656;7.188;2023-06-14T04:51:59;18.50;84.90
9941;DHT22;5009;50.656;7.188;2023-06-14T04:54:27;18.80;83.90
9941;DHT22;5009;50.656;7.188;2023-06-14T04:56:53;19.00;83.00
9941;DHT22;5009;50.656;7.188;2023-06-14T04:59:21;19.10;82.30
9941;DHT22;5009;50.656;7.188;2023-06-14T05:01:48;19.60;81.30
9941;DHT22;5009;50.656;7.188;2023-06-14T05:04:15;20.10;79.30
9941;DHT22;5009;50.656;7.188;2023-06-14T05:06:44;20.80;77.10
9941;DHT22;5009;50.656;7.188;2023-06-14T05:09:12;21.70;74.10
9941;DHT22;5009;50.656;7.188;2023-06-14T05:11:38;22.70;70.10
9941;DHT22;5009;50.656;7.188;2023-06-14T05:14:03;24.10;64.70
9941;DHT22;5009;50.656;7.188;2023-06-14T05:16:29;25.50;59.50
9941;DHT22;5009;50.656;7.188;2023-06-14T05:18:55;27.10;56.50
9941;DHT22;5009;50.656;7.188;2023-06-14T05:21:21;28.50;53.70
9941;DHT22;5009;50.656;7.188;2023-06-14T05:23:46;29.50;51.10
9941;DHT22;5009;50.656;7.188;2023-06-14T05:26:12;30.70;49.10
9941;DHT22;5009;50.656;7.188;2023-06-14T05:28:38;31.80;47.10
9941;DHT22;5009;50.656;7.188;2023-06-14T05:31:03;32.80;45.30
9941;DHT22;5009;50.656;7.188;2023-06-14T05:33:29;33.80;44.00
9941;DHT22;5009;50.656;7.188;2023-06-14T05:35:55;34.50;42.90
9941;DHT22;5009;50.656;7.188;2023-06-14T05:38:21;35.10;41.20
9941;DHT22;5009;50.656;7.188;2023-06-14T05:40:46;35.30;40.20
9941;DHT22;5009;50.656;7.188;2023-06-14T05:43:12;36.10;40.10
9941;DHT22;5009;50.656;7.188;2023-06-14T05:45:37;36.40;39.30
9941;DHT22;5009;50.656;7.188;2023-06-14T05:48:03;36.60;38.30
9941;DHT22;5009;50.656;7.188;2023-06-14T05:50:29;36.90;37.50
9941;DHT22;5009;50.656;7.188;2023-06-14T05:52:55;37.70;37.10
9941;DHT22;5009;50.656;7.188;2023-06-14T05:55:21;38.40;36.10
9941;DHT22;5009;50.656;7.188;2023-06-14T05:57:47;38.90;35.30
9941;DHT22;5009;50.656;7.188;2023-06-14T06:00:13;38.20;35.10
9941;DHT22;5009;50.656;7.188;2023-06-14T06:02:43;38.30;34.20
9941;DHT22;5009;50.656;7.188;2023-06-14T06:05:12;39.00;34.10
9941;DHT22;5009;50.656;7.188;2023-06-14T06:07:38;38.90;33.40
9941;DHT22;5009;50.656;7.188;2023-06-14T06:10:05;39.50;33.70
9941;DHT22;5009;50.656;7.188;2023-06-14T06:12:31;39.60;33.60
9941;DHT22;5009;50.656;7.188;2023-06-14T06:14:58;38.80;33.40
9941;DHT22;5009;50.656;7.188;2023-06-14T06:17:25;39.40;33.50
9941;DHT22;5009;50.656;7.188;2023-06-14T06:19:51;38.50;33.40
9941;DHT22;5009;50.656;7.188;2023-06-14T06:22:16;39.50;33.30
9941;DHT22;5009;50.656;7.188;2023-06-14T06:24:42;40.20;32.70
9941;DHT22;5009;50.656;7.188;2023-06-14T06:27:08;39.60;32.30
9941;DHT22;5009;50.656;7.188;2023-06-14T06:29:34;39.60;32.70
9941;DHT22;5009;50.656;7.188;2023-06-14T06:32:01;38.80;32.50
9941;DHT22;5009;50.656;7.188;2023-06-14T06:34:27;40.00;32.70
9941;DHT22;5009;50.656;7.188;2023-06-14T06:36:52;39.70;32.20
9941;DHT22;5009;50.656;7.188;2023-06-14T06:39:18;40.60;32.40
9941;DHT22;5009;50.656;7.188;2023-06-14T06:41:43;40.60;32.00
9941;DHT22;5009;50.656;7.188;2023-06-14T06:44:09;40.90;32.40
9941;DHT22;5009;50.656;7.188;2023-06-14T06:46:38;41.40;32.10
9941;DHT22;5009;50.656;7.188;2023-06-14T06:49:06;40.70;31.50
9941;DHT22;5009;50.656;7.188;2023-06-14T06:51:31;40.20;31.90
9941;DHT22;5009;50.656;7.188;2023-06-14T06:53:58;40.00;31.90
9941;DHT22;5009;50.656;7.188;2023-06-14T06:56:24;40.20;31.60
9941;DHT22;5009;50.656;7.188;2023-06-14T06:58:53;40.10;31.60
9941;DHT22;5009;50.656;7.188;2023-06-14T07:01:18;40.10;31.80
9941;DHT22;5009;50.656;7.188;2023-06-14T07:03:46;39.30;31.50
9941;DHT22;5009;50.656;7.188;2023-06-14T07:06:12;38.70;31.50
9941;DHT22;5009;50.656;7.188;2023-06-14T07:08:38;39.60;31.90
9941;DHT22;5009;50.656;7.188;2023-06-14T07:11:04;39.70;31.70
9941;DHT22;5009;50.656;7.188;2023-06-14T07:13:30;40.30;31.70
9941;DHT22;5009;50.656;7.188;2023-06-14T07:15:58;40.70;31.40
9941;DHT22;5009;50.656;7.188;2023-06-14T07:18:25;40.80;31.30
9941;DHT22;5009;50.656;7.188;2023-06-14T07:20:51;39.90;31.00
9941;DHT22;5009;50.656;7.188;2023-06-14T07:23:17;40.50;31.30
9941;DHT22;5009;50.656;7.188;2023-06-14T07:25:42;38.00;30.40
9941;DHT22;5009;50.656;7.188;2023-06-14T07:28:08;37.70;31.40
9941;DHT22;5009;50.656;7.188;2023-06-14T07:30:34;36.50;31.30
9941;DHT22;5009;50.656;7.188;2023-06-14T07:33:00;36.80;31.40
9941;DHT22;5009;50.656;7.188;2023-06-14T07:35:26;37.00;31.70
9941;DHT22;5009;50.656;7.188;2023-06-14T07:37:51;37.10;31.70
9941;DHT22;5009;50.656;7.188;2023-06-14T07:40:17;35.60;31.30
9941;DHT22;5009;50.656;7.188;2023-06-14T07:42:43;36.70;31.90
9941;DHT22;5009;50.656;7.188;2023-06-14T07:45:08;36.80;31.70
9941;DHT22;5009;50.656;7.188;2023-06-14T07:47:34;36.80;31.30
9941;DHT22;5009;50.656;7.188;2023-06-14T07:50:00;36.90;31.40
9941;DHT22;5009;50.656;7.188;2023-06-14T07:52:25;35.70;31.60
9941;DHT22;5009;50.656;7.188;2023-06-14T07:54:51;34.80;31.60
9941;DHT22;5009;50.656;7.188;2023-06-14T07:57:17;35.10;32.00
9941;DHT22;5009;50.656;7.188;2023-06-14T07:59:45;34.30;32.20
9941;DHT22;5009;50.656;7.188;2023-06-14T08:02:11;33.40;32.10
9941;DHT22;5009;50.656;7.188;2023-06-14T08:04:36;33.40;32.20
9941;DHT22;5009;50.656;7.188;2023-06-14T08:07:02;33.40;32.40
9941;DHT22;5009;50.656;7.188;2023-06-14T08:09:28;33.40;32.60
9941;DHT22;5009;50.656;7.188;2023-06-14T08:11:54;33.40;33.00
9941;DHT22;5009;50.656;7.188;2023-06-14T08:14:20;33.10;32.60
9941;DHT22;5009;50.656;7.188;2023-06-14T08:16:46;32.30;32.80
9941;DHT22;5009;50.656;7.188;2023-06-14T08:19:12;32.50;33.40
9941;DHT22;5009;50.656;7.188;2023-06-14T08:21:37;32.60;33.20
9941;DHT22;5009;50.656;7.188;2023-06-14T08:24:03;32.80;33.20
9941;DHT22;5009;50.656;7.188;2023-06-14T08:26:29;32.50;32.70
9941;DHT22;5009;50.656;7.188;2023-06-14T08:28:56;32.20;32.90
9941;DHT22;5009;50.656;7.188;2023-06-14T08:31:22;32.20;32.40
9941;DHT22;5009;50.656;7.188;2023-06-14T08:33:47;31.60;32.00
9941;DHT22;5009;50.656;7.188;2023-06-14T08:36:13;31.50;32.50
9941;DHT22;5009;50.656;7.188;2023-06-14T08:38:39;31.50;32.50
9941;DHT22;5009;50.656;7.188;2023-06-14T08:41:05;30.70;32.80
9941;DHT22;5009;50.656;7.188;2023-06-14T08:43:32;30.40;33.00
9941;DHT22;5009;50.656;7.188;2023-06-14T08:46:03;30.50;33.00
9941;DHT22;5009;50.656;7.188;2023-06-14T08:48:29;30.40;33.00
9941;DHT22;5009;50.656;7.188;2023-06-14T08:50:59;29.60;32.80
9941;DHT22;5009;50.656;7.188;2023-06-14T08:53:31;29.40;32.90
9941;DHT22;5009;50.656;7.188;2023-06-14T08:56:00;28.90;32.80
9941;DHT22;5009;50.656;7.188;2023-06-14T08:58:33;28.90;33.40
9941;DHT22;5009;50.656;7.188;2023-06-14T09:01:03;29.00;33.00
9941;DHT22;5009;50.656;7.188;2023-06-14T09:03:30;29.30;33.20
9941;DHT22;5009;50.656;7.188;2023-06-14T09:05:59;29.10;32.90
9941;DHT22;5009;50.656;7.188;2023-06-14T09:08:26;29.20;33.20
9941;DHT22;5009;50.656;7.188;2023-06-14T09:10:56;29.30;33.30
9941;DHT22;5009;50.656;7.188;2023-06-14T09:13:22;29.40;33.30
9941;DHT22;5009;50.656;7.188;2023-06-14T09:15:47;29.30;32.70
9941;DHT22;5009;50.656;7.188;2023-06-14T09:18:13;28.50;33.30
9941;DHT22;5009;50.656;7.188;2023-06-14T09:20:40;28.20;33.70
9941;DHT22;5009;50.656;7.188;2023-06-14T09:23:06;27.90;33.70
9941;DHT22;5009;50.656;7.188;2023-06-14T09:25:32;28.00;33.80
9941;DHT22;5009;50.656;7.188;2023-06-14T09:27:58;28.20;33.70
9941;DHT22;5009;50.656;7.188;2023-06-14T09:30:23;27.90;33.50
9941;DHT22;5009;50.656;7.188;2023-06-14T09:32:49;27.90;33.90
9941;DHT22;5009;50.656;7.188;2023-06-14T09:35:17;28.10;34.00
9941;DHT22;5009;50.656;7.188;2023-06-14T09:37:43;28.10;33.90
9941;DHT22;5009;50.656;7.188;2023-06-14T09:40:09;28.00;33.90
9941;DHT22;5009;50.656;7.188;2023-06-14T09:42:36;27.70;34.00
9941;DHT22;5009;50.656;7.188;2023-06-14T09:45:02;27.60;33.60
9941;DHT22;5009;50.656;7.188;2023-06-14T09:47:28;27.50;33.30
9941;DHT22;5009;50.656;7.188;2023-06-14T09:49:55;27.50;33.70
9941;DHT22;5009;50.656;7.188;2023-06-14T09:52:22;27.30;33.70
9941;DHT22;5009;50.656;7.188;2023-06-14T09:54:49;27.40;34.00
9941;DHT22;5009;50.656;7.188;2023-06-14T09:57:16;27.40;33.90
9941;DHT22;5009;50.656;7.188;2023-06-14T09:59:46;27.40;34.10
9941;DHT22;5009;50.656;7.188;2023-06-14T10:04:57;27.00;34.20
9941;DHT22;5009;50.656;7.188;2023-06-14T10:07:26;26.70;34.30
9941;DHT22;5009;50.656;7.188;2023-06-14T10:09:55;26.70;34.40
9941;DHT22;5009;50.656;7.188;2023-06-14T10:12:21;26.50;34.40
9941;DHT22;5009;50.656;7.188;2023-06-14T10:14:49;26.60;35.00
9941;DHT22;5009;50.656;7.188;2023-06-14T10:17:43;26.70;34.80
9941;DHT22;5009;50.656;7.188;2023-06-14T10:22:58;26.10;34.80
9941;DHT22;5009;50.656;7.188;2023-06-14T10:25:29;25.80;34.70
9941;DHT22;5009;50.656;7.188;2023-06-14T10:30:39;26.00;35.20
9941;DHT22;5009;50.656;7.188;2023-06-14T10:33:08;25.90;35.50
9941;DHT22;5009;50.656;7.188;2023-06-14T10:35:35;25.80;35.40
9941;DHT22;5009;50.656;7.188;2023-06-14T10:38:08;25.40;35.60
9941;DHT22;5009;50.656;7.188;2023-06-14T10:40:34;25.40;35.90
9941;DHT22;5009;50.656;7.188;2023-06-14T10:43:01;25.60;36.20
9941;DHT22;5009;50.656;7.188;2023-06-14T10:46:19;25.60;36.30
9941;DHT22;5009;50.656;7.188;2023-06-14T10:48:48;25.70;36.00
9941;DHT22;5009;50.656;7.188;2023-06-14T10:51:17;25.60;36.10
9941;DHT22;5009;50.656;7.188;2023-06-14T10:53:50;25.50;36.10
9941;DHT22;5009;50.656;7.188;2023-06-14T10:56:29;25.30;35.40
9941;DHT22;5009;50.656;7.188;2023-06-14T10:58:57;25.00;35.80
9941;DHT22;5009;50.656;7.188;2023-06-14T11:01:35;24.90;36.10
9941;DHT22;5009;50.656;7.188;2023-06-14T11:04:10;24.90;36.30
9941;DHT22;5009;50.656;7.188;2023-06-14T11:06:49;25.00;36.50
9941;DHT22;5009;50.656;7.188;2023-06-14T11:12:15;25.30;36.80
9941;DHT22;5009;50.656;7.188;2023-06-14T11:14:40;25.30;36.60
9941;DHT22;5009;50.656;7.188;2023-06-14T11:17:06;25.40;36.40
9941;DHT22;5009;50.656;7.188;2023-06-14T11:19:32;25.30;36.30
9941;DHT22;5009;50.656;7.188;2023-06-14T11:21:57;25.10;36.20
9941;DHT22;5009;50.656;7.188;2023-06-14T11:24:24;25.10;35.60
9941;DHT22;5009;50.656;7.188;2023-06-14T11:26:50;25.10;35.80
9941;DHT22;5009;50.656;7.188;2023-06-14T11:29:16;25.20;35.80
9941;DHT22;5009;50.656;7.188;2023-06-14T11:31:45;25.20;35.50
9941;DHT22;5009;50.656;7.188;2023-06-14T11:34:12;25.10;35.20
9941;DHT22;5009;50.656;7.188;2023-06-14T11:36:38;25.10;35.00
9941;DHT22;5009;50.656;7.188;2023-06-14T11:39:05;24.90;35.40
9941;DHT22;5009;50.656;7.188;2023-06-14T11:41:39;24.80;35.40
9941;DHT22;5009;50.656;7.188;2023-06-14T11:44:06;24.80;35.50
9941;DHT22;5009;50.656;7.188;2023-06-14T11:46:31;24.90;35.60
9941;DHT22;5009;50.656;7.188;2023-06-14T11:48:57;25.10;36.00
9941;DHT22;5009;50.656;7.188;2023-06-14T11:51:23;25.10;36.00
9941;DHT22;5009;50.656;7.188;2023-06-14T11:53:49;25.10;36.10
9941;DHT22;5009;50.656;7.188;2023-06-14T11:56:15;25.10;36.70
9941;DHT22;5009;50.656;7.188;2023-06-14T11:58:43;25.00;36.60
9941;DHT22;5009;50.656;7.188;2023-06-14T12:01:09;24.70;36.50
9941;DHT22;5009;50.656;7.188;2023-06-14T12:03:34;24.70;36.70
9941;DHT22;5009;50.656;7.188;2023-06-14T12:06:08;24.70;37.00
9941;DHT22;5009;50.656;7.188;2023-06-14T12:08:37;24.80;36.90
9941;DHT22;5009;50.656;7.188;2023-06-14T12:11:07;24.80;36.80
9941;DHT22;5009;50.656;7.188;2023-06-14T12:13:34;24.80;36.60
9941;DHT22;5009;50.656;7.188;2023-06-14T12:15:59;24.70;36.70
9941;DHT22;5009;50.656;7.188;2023-06-14T12:18:37;24.70;37.10
9941;DHT22;5009;50.656;7.188;2023-06-14T12:21:07;24.50;36.60
9941;DHT22;5009;50.656;7.188;2023-06-14T12:23:43;24.60;36.70
9941;DHT22;5009;50.656;7.188;2023-06-14T12:26:12;24.50;37.00
9941;DHT22;5009;50.656;7.188;2023-06-14T12:28:40;24.50;37.40
9941;DHT22;5009;50.656;7.188;2023-06-14T12:31:06;24.70;37.70
9941;DHT22;5009;50.656;7.188;2023-06-14T12:33:32;24.80;37.80
9941;DHT22;5009;50.656;7.188;2023-06-14T12:35:58;24.80;38.00
9941;DHT22;5009;50.656;7.188;2023-06-14T12:38:24;24.80;37.90
9941;DHT22;5009;50.656;7.188;2023-06-14T12:40:49;24.70;37.60
9941;DHT22;5009;50.656;7.188;2023-06-14T12:43:15;24.70;37.60
9941;DHT22;5009;50.656;7.188;2023-06-14T12:45:41;24.80;37.60
9941;DHT22;5009;50.656;7.188;2023-06-14T12:48:06;24.80;37.70
9941;DHT22;5009;50.656;7.188;2023-06-14T12:50:34;24.70;37.50
9941;DHT22;5009;50.656;7.188;2023-06-14T12:52:59;24.60;37.70
9941;DHT22;5009;50.656;7.188;2023-06-14T12:55:25;24.60;37.90
9941;DHT22;5009;50.656;7.188;2023-06-14T12:57:51;24.60;38.20
9941;DHT22;5009;50.656;7.188;2023-06-14T13:00:17;24.60;38.50
9941;DHT22;5009;50.656;7.188;2023-06-14T13:02:43;24.60;37.90
9941;DHT22;5009;50.656;7.188;2023-06-14T13:05:09;24.60;38.20
9941;DHT22;5009;50.656;7.188;2023-06-14T13:07:35;24.40;38.30
9941;DHT22;5009;50.656;7.188;2023-06-14T13:10:00;24.50;38.20
9941;DHT22;5009;50.656;7.188;2023-06-14T13:12:26;24.40;37.90
9941;DHT22;5009;50.656;7.188;2023-06-14T13:14:52;24.50;38.10
9941;DHT22;5009;50.656;7.188;2023-06-14T13:17:17;24.50;38.20
9941;DHT22;5009;50.656;7.188;2023-06-14T13:19:43;24.60;38.40
9941;DHT22;5009;50.656;7.188;2023-06-14T13:22:08;24.70;38.10
9941;DHT22;5009;50.656;7.188;2023-06-14T13:24:34;24.70;37.90
9941;DHT22;5009;50.656;7.188;2023-06-14T13:27:00;24.60;37.70
9941;DHT22;5009;50.656;7.188;2023-06-14T13:29:26;24.40;37.30
9941;DHT22;5009;50.656;7.188;2023-06-14T13:31:53;24.40;37.20
9941;DHT22;5009;50.656;7.188;2023-06-14T13:34:18;24.40;37.00
9941;DHT22;5009;50.656;7.188;2023-06-14T13:36:44;24.60;37.60
9941;DHT22;5009;50.656;7.188;2023-06-14T13:39:09;24.60;37.40
9941;DHT22;5009;50.656;7.188;2023-06-14T13:41:36;24.70;37.80
9941;DHT22;5009;50.656;7.188;2023-06-14T13:44:02;24.70;37.90
9941;DHT22;5009;50.656;7.188;2023-06-14T13:46:31;24.70;37.90
9941;DHT22;5009;50.656;7.188;2023-06-14T13:48:57;24.70;37.80
9941;DHT22;5009;50.656;7.188;2023-06-14T13:51:30;24.50;38.10
9941;DHT22;5009;50.656;7.188;2023-06-14T13:53:55;24.40;38.10
9941;DHT22;5009;50.656;7.188;2023-06-14T13:56:21;24.50;38.50
9941;DHT22;5009;50.656;7.188;2023-06-14T13:58:48;24.60;38.40
9941;DHT22;5009;50.656;7.188;2023-06-14T14:01:13;24.70;38.70
9941;DHT22;5009;50.656;7.188;2023-06-14T14:03:39;24.80;38.50
9941;DHT22;5009;50.656;7.188;2023-06-14T14:06:05;25.00;38.70
9941;DHT22;5009;50.656;7.188;2023-06-14T14:08:31;24.90;38.40
9941;DHT22;5009;50.656;7.188;2023-06-14T14:10:56;24.70;38.60
9941;DHT22;5009;50.656;7.188;2023-06-14T14:13:22;24.60;38.60
9941;DHT22;5009;50.656;7.188;2023-06-14T14:15:48;24.50;38.90
9941;DHT22;5009;50.656;7.188;2023-06-14T14:18:16;24.20;38.70
9941;DHT22;5009;50.656;7.188;2023-06-14T14:20:42;24.30;38.80
9941;DHT22;5009;50.656;7.188;2023-06-14T14:23:08;24.30;38.80
9941;DHT22;5009;50.656;7.188;2023-06-14T14:25:33;24.40;38.40
9941;DHT22;5009;50.656;7.188;2023-06-14T14:27:59;24.50;38.70
9941;DHT22;5009;50.656;7.188;2023-06-14T14:30:24;24.60;39.00
9941;DHT22;5009;50.656;7.188;2023-06-14T14:32:50;24.60;38.80
9941;DHT22;5009;50.656;7.188;2023-06-14T14:35:17;24.60;38.70
9941;DHT22;5009;50.656;7.188;2023-06-14T14:37:43;24.50;38.50
9941;DHT22;5009;50.656;7.188;2023-06-14T14:40:09;24.40;38.40
9941;DHT22;5009;50.656;7.188;2023-06-14T14:42:38;24.20;38.40
9941;DHT22;5009;50.656;7.188;2023-06-14T14:45:04;24.10;38.30
9941;DHT22;5009;50.656;7.188;2023-06-14T14:47:29;24.20;38.70
9941;DHT22;5009;50.656;7.188;2023-06-14T14:49:55;24.30;38.50
9941;DHT22;5009;50.656;7.188;2023-06-14T14:52:20;24.40;38.50
9941;DHT22;5009;50.656;7.188;2023-06-14T14:54:46;24.50;38.50
9941;DHT22;5009;50.656;7.188;2023-06-14T14:57:12;24.60;38.40
9941;DHT22;5009;50.656;7.188;2023-06-14T14:59:37;24.50;38.50
9941;DHT22;5009;50.656;7.188;2023-06-14T15:02:03;24.50;38.20
9941;DHT22;5009;50.656;7.188;2023-06-14T15:04:28;24.30;38.20
9941;DHT22;5009;50.656;7.188;2023-06-14T15:06:54;24.20;38.20
9941;DHT22;5009;50.656;7.188;2023-06-14T15:09:19;24.10;38.30
9941;DHT22;5009;50.656;7.188;2023-06-14T15:11:45;24.10;38.60
9941;DHT22;5009;50.656;7.188;2023-06-14T15:14:11;24.10;38.80
9941;DHT22;5009;50.656;7.188;2023-06-14T15:16:37;24.30;39.10
9941;DHT22;5009;50.656;7.188;2023-06-14T15:19:02;24.30;38.70
9941;DHT22;5009;50.656;7.188;2023-06-14T15:21:28;24.20;38.40
9941;DHT22;5009;50.656;7.188;2023-06-14T15:23:53;24.20;38.40
9941;DHT22;5009;50.656;7.188;2023-06-14T15:26:19;24.20;38.50
9941;DHT22;5009;50.656;7.188;2023-06-14T15:28:45;24.10;38.10
9941;DHT22;5009;50.656;7.188;2023-06-14T15:31:11;24.20;38.30
9941;DHT22;5009;50.656;7.188;2023-06-14T15:33:36;24.30;38.40
9941;DHT22;5009;50.656;7.188;2023-06-14T15:36:02;24.40;38.60
9941;DHT22;5009;50.656;7.188;2023-06-14T15:38:28;24.50;38.50
9941;DHT22;5009;50.656;7.188;2023-06-14T15:40:53;24.60;38.40
9941;DHT22;5009;50.656;7.188;2023-06-14T15:43:20;24.60;38.60
9941;DHT22;5009;50.656;7.188;2023-06-14T15:45:45;24.40;38.50
9941;DHT22;5009;50.656;7.188;2023-06-14T15:48:11;24.40;38.50
9941;DHT22;5009;50.656;7.188;2023-06-14T15:50:36;24.50;38.40
9941;DHT22;5009;50.656;7.188;2023-06-14T15:53:02;24.40;38.30
9941;DHT22;5009;50.656;7.188;2023-06-14T15:55:28;24.50;38.50
9941;DHT22;5009;50.656;7.188;2023-06-14T15:57:53;24.50;38.50
9941;DHT22;5009;50.656;7.188;2023-06-14T16:00:19;24.40;38.50
9941;DHT22;5009;50.656;7.188;2023-06-14T16:02:47;24.40;38.60
9941;DHT22;5009;50.656;7.188;2023-06-14T16:05:13;24.40;38.70
9941;DHT22;5009;50.656;7.188;2023-06-14T16:07:38;24.40;38.50
9941;DHT22;5009;50.656;7.188;2023-06-14T16:10:04;24.40;38.60
9941;DHT22;5009;50.656;7.188;2023-06-14T16:12:30;24.20;38.50
9941;DHT22;5009;50.656;7.188;2023-06-14T16:14:55;24.20;38.80
9941;DHT22;5009;50.656;7.188;2023-06-14T16:17:21;24.10;38.60
9941;DHT22;5009;50.656;7.188;2023-06-14T16:19:47;24.00;38.40
9941;DHT22;5009;50.656;7.188;2023-06-14T16:22:12;23.80;38.60
9941;DHT22;5009;50.656;7.188;2023-06-14T16:24:38;24.00;38.90
9941;DHT22;5009;50.656;7.188;2023-06-14T16:27:04;23.90;38.80
9941;DHT22;5009;50.656;7.188;2023-06-14T16:29:31;23.90;39.00
9941;DHT22;5009;50.656;7.188;2023-06-14T16:31:57;24.10;39.00
9941;DHT22;5009;50.656;7.188;2023-06-14T16:34:23;24.10;38.50
9941;DHT22;5009;50.656;7.188;2023-06-14T16:36:48;24.10;38.60
9941;DHT22;5009;50.656;7.188;2023-06-14T16:39:14;24.10;38.90
9941;DHT22;5009;50.656;7.188;2023-06-14T16:41:40;24.00;38.60
9941;DHT22;5009;50.656;7.188;2023-06-14T16:44:06;24.00;38.20
9941;DHT22;5009;50.656;7.188;2023-06-14T16:46:32;24.00;38.40
9941;DHT22;5009;50.656;7.188;2023-06-14T16:48:59;23.90;38.30
9941;DHT22;5009;50.656;7.188;2023-06-14T16:51:25;23.80;38.40
9941;DHT22;5009;50.656;7.188;2023-06-14T16:53:51;23.80;38.30
9941;DHT22;5009;50.656;7.188;2023-06-14T16:56:19;23.90;38.50
9941;DHT22;5009;50.656;7.188;2023-06-14T16:58:44;23.90;38.70
9941;DHT22;5009;50.656;7.188;2023-06-14T17:01:11;23.90;38.60
9941;DHT22;5009;50.656;7.188;2023-06-14T17:03:36;23.90;38.50
9941;DHT22;5009;50.656;7.188;2023-06-14T17:06:02;23.90;38.60
9941;DHT22;5009;50.656;7.188;2023-06-14T17:08:28;23.90;38.60
9941;DHT22;5009;50.656;7.188;2023-06-14T17:10:54;23.80;38.40
9941;DHT22;5009;50.656;7.188;2023-06-14T17:13:22;23.90;38.10
9941;DHT22;5009;50.656;7.188;2023-06-14T17:15:48;23.80;37.90
9941;DHT22;5009;50.656;7.188;2023-06-14T17:18:13;23.80;38.10
9941;DHT22;5009;50.656;7.188;2023-06-14T17:20:39;23.80;37.80
9941;DHT22;5009;50.656;7.188;2023-06-14T17:23:05;23.80;37.90
9941;DHT22;5009;50.656;7.188;2023-06-14T17:25:30;23.90;38.00
9941;DHT22;5009;50.656;7.188;2023-06-14T17:27:56;23.80;38.00
9941;DHT22;5009;50.656;7.188;2023-06-14T17:30:22;23.80;38.00
9941;DHT22;5009;50.656;7.188;2023-06-14T17:32:48;23.90;37.90
9941;DHT22;5009;50.656;7.188;2023-06-14T17:35:13;23.90;38.00
9941;DHT22;5009;50.656;7.188;2023-06-14T17:37:40;24.00;38.00
9941;DHT22;5009;50.656;7.188;2023-06-14T17:40:06;23.80;38.00
9941;DHT22;5009;50.656;7.188;2023-06-14T17:42:32;23.90;38.20
9941;DHT22;5009;50.656;7.188;2023-06-14T17:44:57;23.90;38.10
9941;DHT22;5009;50.656;7.188;2023-06-14T17:47:24;23.90;38.20
9941;DHT22;5009;50.656;7.188;2023-06-14T17:49:50;23.80;38.10
9941;DHT22;5009;50.656;7.188;2023-06-14T17:52:17;23.80;37.90
9941;DHT22;5009;50.656;7.188;2023-06-14T17:54:43;23.80;37.80
9941;DHT22;5009;50.656;7.188;2023-06-14T17:57:09;23.60;37.80
9941;DHT22;5009;50.656;7.188;2023-06-14T17:59:36;23.60;37.90
9941;DHT22;5009;50.656;7.188;2023-06-14T18:02:02;23.60;38.00
9941;DHT22;5009;50.656;7.188;2023-06-14T18:04:28;23.60;38.20
9941;DHT22;5009;50.656;7.188;2023-06-14T18:06:54;23.60;38.30
9941;DHT22;5009;50.656;7.188;2023-06-14T18:09:20;23.60;38.50
9941;DHT22;5009;50.656;7.188;2023-06-14T18:11:46;23.50;38.20
9941;DHT22;5009;50.656;7.188;2023-06-14T18:14:11;23.50;38.70
9941;DHT22;5009;50.656;7.188;2023-06-14T18:16:37;23.50;38.50
9941;DHT22;5009;50.656;7.188;2023-06-14T18:19:06;23.40;38.20
9941;DHT22;5009;50.656;7.188;2023-06-14T18:21:32;23.40;38.40
9941;DHT22;5009;50.656;7.188;2023-06-14T18:23:59;23.40;38.30
9941;DHT22;5009;50.656;7.188;2023-06-14T18:26:25;23.40;38.60
9941;DHT22;5009;50.656;7.188;2023-06-14T18:28:56;23.30;38.60
9941;DHT22;5009;50.656;7.188;2023-06-14T18:31:22;23.40;38.50
9941;DHT22;5009;50.656;7.188;2023-06-14T18:33:47;23.40;38.50
9941;DHT22;5009;50.656;7.188;2023-06-14T18:36:13;23.30;38.40
9941;DHT22;5009;50.656;7.188;2023-06-14T18:38:38;23.20;38.50
9941;DHT22;5009;50.656;7.188;2023-06-14T18:41:04;23.20;38.60
9941;DHT22;5009;50.656;7.188;2023-06-14T18:43:30;23.20;38.60
9941;DHT22;5009;50.656;7.188;2023-06-14T18:45:58;23.20;38.60
9941;DHT22;5009;50.656;7.188;2023-06-14T18:48:24;23.10;38.60
9941;DHT22;5009;50.656;7.188;2023-06-14T18:50:50;23.10;38.60
9941;DHT22;5009;50.656;7.188;2023-06-14T18:53:15;23.10;38.80
9941;DHT22;5009;50.656;7.188;2023-06-14T18:55:41;23.10;38.80
9941;DHT22;5009;50.656;7.188;2023-06-14T18:58:09;23.00;38.70
9941;DHT22;5009;50.656;7.188;2023-06-14T19:00:35;23.00;38.90
9941;DHT22;5009;50.656;7.188;2023-06-14T19:03:01;22.90;39.10
9941;DHT22;5009;50.656;7.188;2023-06-14T19:05:29;22.80;39.20
9941;DHT22;5009;50.656;7.188;2023-06-14T19:07:55;22.70;39.40
9941;DHT22;5009;50.656;7.188;2023-06-14T19:10:20;22.70;39.60
9941;DHT22;5009;50.656;7.188;2023-06-14T19:12:47;22.60;39.50
9941;DHT22;5009;50.656;7.188;2023-06-14T19:15:13;22.60;39.60
9941;DHT22;5009;50.656;7.188;2023-06-14T19:17:38;22.70;39.90
9941;DHT22;5009;50.656;7.188;2023-06-14T19:20:05;22.70;40.10
9941;DHT22;5009;50.656;7.188;2023-06-14T19:22:33;22.70;40.10
9941;DHT22;5009;50.656;7.188;2023-06-14T19:24:59;22.70;40.20
9941;DHT22;5009;50.656;7.188;2023-06-14T19:27:25;22.70;40.50
9941;DHT22;5009;50.656;7.188;2023-06-14T19:29:51;22.60;40.60
9941;DHT22;5009;50.656;7.188;2023-06-14T19:32:16;22.50;41.10
9941;DHT22;5009;50.656;7.188;2023-06-14T19:34:42;22.50;41.00
9941;DHT22;5009;50.656;7.188;2023-06-14T19:37:10;22.40;41.00
9941;DHT22;5009;50.656;7.188;2023-06-14T19:39:36;22.40;41.20
9941;DHT22;5009;50.656;7.188;2023-06-14T19:42:02;22.30;41.20
9941;DHT22;5009;50.656;7.188;2023-06-14T19:44:28;22.30;41.20
9941;DHT22;5009;50.656;7.188;2023-06-14T19:46:54;22.30;41.40
9941;DHT22;5009;50.656;7.188;2023-06-14T19:49:19;22.30;41.40
9941;DHT22;5009;50.656;7.188;2023-06-14T19:51:45;22.20;41.60
9941;DHT22;5009;50.656;7.188;2023-06-14T19:54:11;22.10;41.90
9941;DHT22;5009;50.656;7.188;2023-06-14T19:56:36;22.10;42.50
9941;DHT22;5009;50.656;7.188;2023-06-14T19:59:02;22.00;42.70
9941;DHT22;5009;50.656;7.188;2023-06-14T20:01:28;21.90;42.60
9941;DHT22;5009;50.656;7.188;2023-06-14T20:03:53;21.80;42.80
9941;DHT22;5009;50.656;7.188;2023-06-14T20:06:19;21.80;43.00
9941;DHT22;5009;50.656;7.188;2023-06-14T20:08:45;21.80;43.70